sensor_id;sensor_type;location;lat;lon;timestamp;P1;durP1;ratioP1;P2;durP2;ratioP2
16189;SDS011;41754;51.498;7.540;2024-01-16T00:01:29;15.63;;;11.93;;
16189;SDS011;41754;51.498;7.540;2024-01-16T00:03:57;15.97;;;12.30;;
16189;SDS011;41754;51.498;7.540;2024-01-16T00:06:25;19.97;;;12.03;;
16189;SDS011;41754;51.498;7.540;2024-01-16T00:08:53;18.23;;;12.90;;
16189;SDS011;41754;51.498;7.540;2024-01-16T00:11:20;18.57;;;13.00;;
16189;SDS011;41754;51.498;7.540;2024-01-16T00:13:50;15.37;;;11.50;;
16189;SDS011;41754;51.498;7.540;2024-01-16T00:16:18;15.43;;;12.20;;
16189;SDS011;41754;51.498;7.540;2024-01-16T00:18:46;18.00;;;12.20;;
16189;SDS011;41754;51.498;7.540;2024-01-16T00:21:14;18.33;;;12.37;;
16189;SDS011;41754;51.498;7.540;2024-01-16T00:23:42;16.80;;;11.57;;
16189;SDS011;41754;51.498;7.540;2024-01-16T00:26:18;17.27;;;11.57;;
16189;SDS011;41754;51.498;7.540;2024-01-16T00:28:47;17.53;;;11.87;;
16189;SDS011;41754;51.498;7.540;2024-01-16T00:31:16;15.37;;;10.50;;
16189;SDS011;41754;51.498;7.540;2024-01-16T00:33:46;15.50;;;11.53;;
16189;SDS011;41754;51.498;7.540;2024-01-16T00:36:14;17.87;;;11.30;;
16189;SDS011;41754;51.498;7.540;2024-01-16T00:38:42;13.17;;;10.83;;
16189;SDS011;41754;51.498;7.540;2024-01-16T00:41:10;13.03;;;9.63;;
16189;SDS011;41754;51.498;7.540;2024-01-16T00:43:40;15.33;;;9.83;;
16189;SDS011;41754;51.498;7.540;2024-01-16T00:46:09;14.20;;;10.33;;
16189;SDS011;41754;51.498;7.540;2024-01-16T00:48:38;15.53;;;10.60;;
16189;SDS011;41754;51.498;7.540;2024-01-16T00:51:06;17.70;;;11.10;;
16189;SDS011;41754;51.498;7.540;2024-01-16T00:53:39;19.23;;;11.00;;
16189;SDS011;41754;51.498;7.540;2024-01-16T00:56:07;15.23;;;10.83;;
16189;SDS011;41754;51.498;7.540;2024-01-16T00:58:35;14.13;;;11.23;;
16189;SDS011;41754;51.498;7.540;2024-01-16T01:01:04;14.73;;;10.53;;
16189;SDS011;41754;51.498;7.540;2024-01-16T01:03:32;16.13;;;11.60;;
16189;SDS011;41754;51.498;7.540;2024-01-16T01:06:01;17.73;;;11.27;;
16189;SDS011;41754;51.498;7.540;2024-01-16T01:08:30;15.60;;;11.57;;
16189;SDS011;41754;51.498;7.540;2024-01-16T01:10:58;16.07;;;11.97;;
16189;SDS011;41754;51.498;7.540;2024-01-16T01:13:26;16.43;;;10.90;;
16189;SDS011;41754;51.498;7.540;2024-01-16T01:15:54;16.30;;;12.00;;
16189;SDS011;41754;51.498;7.540;2024-01-16T01:18:21;13.77;;;10.80;;
16189;SDS011;41754;51.498;7.540;2024-01-16T01:20:50;19.10;;;11.87;;
16189;SDS011;41754;51.498;7.540;2024-01-16T01:23:19;15.10;;;11.77;;
16189;SDS011;41754;51.498;7.540;2024-01-16T01:25:47;17.03;;;11.53;;
16189;SDS011;41754;51.498;7.540;2024-01-16T01:28:15;17.23;;;11.90;;
16189;SDS011;41754;51.498;7.540;2024-01-16T01:30:43;18.20;;;11.97;;
16189;SDS011;41754;51.498;7.540;2024-01-16T01:33:11;18.77;;;11.40;;
16189;SDS011;41754;51.498;7.540;2024-01-16T01:35:39;14.70;;;10.97;;
16189;SDS011;41754;51.498;7.540;2024-01-16T01:38:07;15.37;;;10.47;;
16189;SDS011;41754;51.498;7.540;2024-01-16T01:40:37;16.17;;;11.30;;
16189;SDS011;41754;51.498;7.540;2024-01-16T01:43:19;14.93;;;9.73;;
16189;SDS011;41754;51.498;7.540;2024-01-16T01:45:48;20.33;;;10.90;;
16189;SDS011;41754;51.498;7.540;2024-01-16T01:48:29;14.87;;;10.70;;
16189;SDS011;41754;51.498;7.540;2024-01-16T01:50:58;15.30;;;9.97;;
16189;SDS011;41754;51.498;7.540;2024-01-16T01:53:27;14.30;;;10.80;;
16189;SDS011;41754;51.498;7.540;2024-01-16T01:55:57;14.27;;;9.97;;
16189;SDS011;41754;51.498;7.540;2024-01-16T01:58:25;16.73;;;11.33;;
16189;SDS011;41754;51.498;7.540;2024-01-16T02:00:54;18.07;;;11.10;;
16189;SDS011;41754;51.498;7.540;2024-01-16T02:03:22;14.57;;;10.57;;
16189;SDS011;41754;51.498;7.540;2024-01-16T02:05:54;15.77;;;11.30;;
16189;SDS011;41754;51.498;7.540;2024-01-16T02:08:23;13.70;;;10.53;;
16189;SDS011;41754;51.498;7.540;2024-01-16T02:10:51;17.30;;;10.83;;
16189;SDS011;41754;51.498;7.540;2024-01-16T02:13:21;17.63;;;10.90;;
16189;SDS011;41754;51.498;7.540;2024-01-16T02:15:50;14.50;;;10.27;;
16189;SDS011;41754;51.498;7.540;2024-01-16T02:18:17;15.83;;;9.93;;
16189;SDS011;41754;51.498;7.540;2024-01-16T02:20:46;15.37;;;10.20;;
16189;SDS011;41754;51.498;7.540;2024-01-16T02:23:15;15.10;;;10.63;;
16189;SDS011;41754;51.498;7.540;2024-01-16T02:25:47;15.40;;;10.27;;
16189;SDS011;41754;51.498;7.540;2024-01-16T02:28:15;14.77;;;10.30;;
16189;SDS011;41754;51.498;7.540;2024-01-16T02:30:42;14.80;;;10.70;;
16189;SDS011;41754;51.498;7.540;2024-01-16T02:33:10;21.30;;;11.17;;
16189;SDS011;41754;51.498;7.540;2024-01-16T02:35:39;15.23;;;11.43;;
16189;SDS011;41754;51.498;7.540;2024-01-16T02:38:07;15.20;;;11.00;;
16189;SDS011;41754;51.498;7.540;2024-01-16T02:40:35;15.67;;;8.87;;
16189;SDS011;41754;51.498;7.540;2024-01-16T02:43:04;14.57;;;9.53;;
16189;SDS011;41754;51.498;7.540;2024-01-16T02:45:32;13.97;;;9.80;;
16189;SDS011;41754;51.498;7.540;2024-01-16T02:48:00;15.40;;;9.40;;
16189;SDS011;41754;51.498;7.540;2024-01-16T02:50:30;12.00;;;10.17;;
16189;SDS011;41754;51.498;7.540;2024-01-16T02:52:58;13.90;;;9.47;;
16189;SDS011;41754;51.498;7.540;2024-01-16T02:55:25;14.37;;;9.80;;
16189;SDS011;41754;51.498;7.540;2024-01-16T02:57:53;15.83;;;9.50;;
16189;SDS011;41754;51.498;7.540;2024-01-16T03:00:23;15.27;;;9.93;;
16189;SDS011;41754;51.498;7.540;2024-01-16T03:02:50;15.80;;;9.40;;
16189;SDS011;41754;51.498;7.540;2024-01-16T03:05:18;12.97;;;9.17;;
16189;SDS011;41754;51.498;7.540;2024-01-16T03:07:46;16.63;;;9.90;;
16189;SDS011;41754;51.498;7.540;2024-01-16T03:10:14;12.50;;;9.53;;
16189;SDS011;41754;51.498;7.540;2024-01-16T03:12:42;16.63;;;9.87;;
16189;SDS011;41754;51.498;7.540;2024-01-16T03:15:10;13.23;;;9.77;;
16189;SDS011;41754;51.498;7.540;2024-01-16T03:17:40;13.60;;;9.90;;
16189;SDS011;41754;51.498;7.540;2024-01-16T03:20:08;12.83;;;9.00;;
16189;SDS011;41754;51.498;7.540;2024-01-16T03:22:36;14.23;;;9.37;;
16189;SDS011;41754;51.498;7.540;2024-01-16T03:25:04;14.37;;;9.40;;
16189;SDS011;41754;51.498;7.540;2024-01-16T03:27:33;16.53;;;9.77;;
16189;SDS011;41754;51.498;7.540;2024-01-16T03:30:01;11.47;;;9.00;;
16189;SDS011;41754;51.498;7.540;2024-01-16T03:32:29;11.30;;;8.87;;
16189;SDS011;41754;51.498;7.540;2024-01-16T03:34:58;11.87;;;8.70;;
16189;SDS011;41754;51.498;7.540;2024-01-16T03:37:27;15.47;;;10.07;;
16189;SDS011;41754;51.498;7.540;2024-01-16T03:39:54;15.77;;;10.37;;
16189;SDS011;41754;51.498;7.540;2024-01-16T03:42:23;13.70;;;9.73;;
16189;SDS011;41754;51.498;7.540;2024-01-16T03:44:51;13.20;;;10.10;;
16189;SDS011;41754;51.498;7.540;2024-01-16T03:47:19;11.37;;;9.73;;
16189;SDS011;41754;51.498;7.540;2024-01-16T03:49:47;13.67;;;9.50;;
16189;SDS011;41754;51.498;7.540;2024-01-16T03:52:16;16.00;;;10.80;;
16189;SDS011;41754;51.498;7.540;2024-01-16T03:54:44;16.17;;;9.93;;
16189;SDS011;41754;51.498;7.540;2024-01-16T03:57:12;14.70;;;10.57;;
16189;SDS011;41754;51.498;7.540;2024-01-16T03:59:40;13.13;;;11.03;;
16189;SDS011;41754;51.498;7.540;2024-01-16T04:02:08;14.37;;;10.97;;
16189;SDS011;41754;51.498;7.540;2024-01-16T04:04:36;15.67;;;11.17;;
16189;SDS011;41754;51.498;7.540;2024-01-16T04:07:04;15.70;;;11.40;;
16189;SDS011;41754;51.498;7.540;2024-01-16T04:09:33;16.70;;;12.07;;
16189;SDS011;41754;51.498;7.540;2024-01-16T04:12:01;18.17;;;12.70;;
16189;SDS011;41754;51.498;7.540;2024-01-16T04:14:29;16.43;;;13.50;;
16189;SDS011;41754;51.498;7.540;2024-01-16T04:16:57;17.97;;;14.03;;
16189;SDS011;41754;51.498;7.540;2024-01-16T04:19:25;17.93;;;15.27;;
16189;SDS011;41754;51.498;7.540;2024-01-16T04:21:53;18.63;;;16.37;;
16189;SDS011;41754;51.498;7.540;2024-01-16T04:24:21;21.30;;;16.20;;
16189;SDS011;41754;51.498;7.540;2024-01-16T04:26:50;18.73;;;15.93;;
16189;SDS011;41754;51.498;7.540;2024-01-16T04:29:18;19.97;;;16.87;;
16189;SDS011;41754;51.498;7.540;2024-01-16T04:31:46;19.03;;;16.40;;
16189;SDS011;41754;51.498;7.540;2024-01-16T04:34:14;18.67;;;16.50;;
16189;SDS011;41754;51.498;7.540;2024-01-16T04:36:42;20.30;;;15.80;;
16189;SDS011;41754;51.498;7.540;2024-01-16T04:39:10;18.27;;;16.30;;
16189;SDS011;41754;51.498;7.540;2024-01-16T04:41:38;18.87;;;15.33;;
16189;SDS011;41754;51.498;7.540;2024-01-16T04:44:07;19.83;;;16.10;;
16189;SDS011;41754;51.498;7.540;2024-01-16T04:46:35;22.30;;;15.87;;
16189;SDS011;41754;51.498;7.540;2024-01-16T04:49:03;19.27;;;15.37;;
16189;SDS011;41754;51.498;7.540;2024-01-16T04:51:31;18.80;;;15.67;;
16189;SDS011;41754;51.498;7.540;2024-01-16T04:53:59;21.50;;;16.17;;
16189;SDS011;41754;51.498;7.540;2024-01-16T04:56:28;19.53;;;14.77;;
16189;SDS011;41754;51.498;7.540;2024-01-16T04:58:56;18.27;;;14.97;;
16189;SDS011;41754;51.498;7.540;2024-01-16T05:01:25;18.00;;;14.53;;
16189;SDS011;41754;51.498;7.540;2024-01-16T05:03:53;19.90;;;15.40;;
16189;SDS011;41754;51.498;7.540;2024-01-16T05:06:21;20.23;;;14.90;;
16189;SDS011;41754;51.498;7.540;2024-01-16T05:08:49;21.23;;;15.93;;
16189;SDS011;41754;51.498;7.540;2024-01-16T05:11:18;19.20;;;15.40;;
16189;SDS011;41754;51.498;7.540;2024-01-16T05:13:46;20.93;;;15.20;;
16189;SDS011;41754;51.498;7.540;2024-01-16T05:16:14;18.53;;;14.17;;
16189;SDS011;41754;51.498;7.540;2024-01-16T05:18:43;23.40;;;16.37;;
16189;SDS011;41754;51.498;7.540;2024-01-16T05:21:11;17.70;;;15.53;;
16189;SDS011;41754;51.498;7.540;2024-01-16T05:23:39;18.70;;;12.67;;
16189;SDS011;41754;51.498;7.540;2024-01-16T05:26:07;18.93;;;13.27;;
16189;SDS011;41754;51.498;7.540;2024-01-16T05:28:35;15.97;;;13.43;;
16189;SDS011;41754;51.498;7.540;2024-01-16T05:31:02;17.93;;;14.03;;
16189;SDS011;41754;51.498;7.540;2024-01-16T05:33:31;20.07;;;13.50;;
16189;SDS011;41754;51.498;7.540;2024-01-16T05:36:00;20.57;;;14.17;;
16189;SDS011;41754;51.498;7.540;2024-01-16T05:38:29;15.07;;;12.33;;
16189;SDS011;41754;51.498;7.540;2024-01-16T05:40:57;16.20;;;12.40;;
16189;SDS011;41754;51.498;7.540;2024-01-16T05:43:25;16.63;;;13.37;;
16189;SDS011;41754;51.498;7.540;2024-01-16T05:45:55;16.67;;;13.63;;
16189;SDS011;41754;51.498;7.540;2024-01-16T05:48:23;17.60;;;13.97;;
16189;SDS011;41754;51.498;7.540;2024-01-16T05:50:50;16.37;;;13.03;;
16189;SDS011;41754;51.498;7.540;2024-01-16T05:53:20;18.73;;;13.63;;
16189;SDS011;41754;51.498;7.540;2024-01-16T05:55:48;15.07;;;13.03;;
16189;SDS011;41754;51.498;7.540;2024-01-16T05:58:15;16.90;;;12.87;;
16189;SDS011;41754;51.498;7.540;2024-01-16T06:00:43;14.67;;;12.87;;
16189;SDS011;41754;51.498;7.540;2024-01-16T06:03:11;15.83;;;12.87;;
16189;SDS011;41754;51.498;7.540;2024-01-16T06:05:39;16.03;;;12.80;;
16189;SDS011;41754;51.498;7.540;2024-01-16T06:08:07;17.03;;;13.13;;
16189;SDS011;41754;51.498;7.540;2024-01-16T06:10:36;16.87;;;12.50;;
16189;SDS011;41754;51.498;7.540;2024-01-16T06:13:04;14.17;;;11.50;;
16189;SDS011;41754;51.498;7.540;2024-01-16T06:15:32;14.07;;;10.67;;
16189;SDS011;41754;51.498;7.540;2024-01-16T06:18:00;11.77;;;10.40;;
16189;SDS011;41754;51.498;7.540;2024-01-16T06:20:28;13.73;;;10.07;;
16189;SDS011;41754;51.498;7.540;2024-01-16T06:22:57;13.67;;;9.27;;
16189;SDS011;41754;51.498;7.540;2024-01-16T06:25:25;10.77;;;9.60;;
16189;SDS011;41754;51.498;7.540;2024-01-16T06:27:54;13.93;;;9.60;;
16189;SDS011;41754;51.498;7.540;2024-01-16T06:30:22;10.83;;;9.80;;
16189;SDS011;41754;51.498;7.540;2024-01-16T06:32:50;10.87;;;9.60;;
16189;SDS011;41754;51.498;7.540;2024-01-16T06:35:19;12.37;;;9.83;;
16189;SDS011;41754;51.498;7.540;2024-01-16T06:37:47;17.23;;;10.57;;
16189;SDS011;41754;51.498;7.540;2024-01-16T06:40:14;15.13;;;10.57;;
16189;SDS011;41754;51.498;7.540;2024-01-16T06:42:42;13.13;;;9.13;;
16189;SDS011;41754;51.498;7.540;2024-01-16T06:45:12;10.30;;;8.73;;
16189;SDS011;41754;51.498;7.540;2024-01-16T06:47:41;12.73;;;8.47;;
16189;SDS011;41754;51.498;7.540;2024-01-16T06:50:09;8.83;;;7.07;;
16189;SDS011;41754;51.498;7.540;2024-01-16T06:52:37;14.90;;;10.57;;
16189;SDS011;41754;51.498;7.540;2024-01-16T06:55:05;10.13;;;7.40;;
16189;SDS011;41754;51.498;7.540;2024-01-16T06:57:34;11.53;;;7.63;;
16189;SDS011;41754;51.498;7.540;2024-01-16T07:00:02;10.57;;;8.77;;
16189;SDS011;41754;51.498;7.540;2024-01-16T07:02:34;11.80;;;9.83;;
16189;SDS011;41754;51.498;7.540;2024-01-16T07:05:03;15.73;;;9.97;;
16189;SDS011;41754;51.498;7.540;2024-01-16T07:07:31;12.67;;;11.30;;
16189;SDS011;41754;51.498;7.540;2024-01-16T07:09:59;12.53;;;11.13;;
16189;SDS011;41754;51.498;7.540;2024-01-16T07:12:27;13.30;;;11.43;;
16189;SDS011;41754;51.498;7.540;2024-01-16T07:14:55;13.00;;;11.43;;
16189;SDS011;41754;51.498;7.540;2024-01-16T07:17:22;15.60;;;12.33;;
16189;SDS011;41754;51.498;7.540;2024-01-16T07:19:51;18.93;;;14.13;;
16189;SDS011;41754;51.498;7.540;2024-01-16T07:22:19;16.47;;;12.50;;
16189;SDS011;41754;51.498;7.540;2024-01-16T07:24:47;18.73;;;13.93;;
16189;SDS011;41754;51.498;7.540;2024-01-16T07:27:15;15.83;;;12.43;;
16189;SDS011;41754;51.498;7.540;2024-01-16T07:29:43;20.03;;;13.43;;
16189;SDS011;41754;51.498;7.540;2024-01-16T07:32:12;17.27;;;12.67;;
16189;SDS011;41754;51.498;7.540;2024-01-16T07:34:39;16.00;;;11.93;;
16189;SDS011;41754;51.498;7.540;2024-01-16T07:37:09;20.70;;;12.87;;
16189;SDS011;41754;51.498;7.540;2024-01-16T07:39:37;19.90;;;13.30;;
16189;SDS011;41754;51.498;7.540;2024-01-16T07:42:05;18.30;;;13.73;;
16189;SDS011;41754;51.498;7.540;2024-01-16T07:44:33;20.50;;;13.93;;
16189;SDS011;41754;51.498;7.540;2024-01-16T07:47:00;19.30;;;12.50;;
16189;SDS011;41754;51.498;7.540;2024-01-16T07:49:28;14.70;;;11.10;;
16189;SDS011;41754;51.498;7.540;2024-01-16T07:51:57;14.53;;;11.00;;
16189;SDS011;41754;51.498;7.540;2024-01-16T07:54:26;16.07;;;11.20;;
16189;SDS011;41754;51.498;7.540;2024-01-16T07:56:54;16.93;;;10.13;;
16189;SDS011;41754;51.498;7.540;2024-01-16T07:59:22;19.17;;;10.80;;
16189;SDS011;41754;51.498;7.540;2024-01-16T08:01:50;15.83;;;9.93;;
16189;SDS011;41754;51.498;7.540;2024-01-16T08:04:18;17.17;;;9.70;;
16189;SDS011;41754;51.498;7.540;2024-01-16T08:06:46;13.10;;;9.37;;
16189;SDS011;41754;51.498;7.540;2024-01-16T08:09:14;14.50;;;9.67;;
16189;SDS011;41754;51.498;7.540;2024-01-16T08:11:43;15.57;;;9.83;;
16189;SDS011;41754;51.498;7.540;2024-01-16T08:14:11;14.90;;;9.00;;
16189;SDS011;41754;51.498;7.540;2024-01-16T08:16:39;16.83;;;8.63;;
16189;SDS011;41754;51.498;7.540;2024-01-16T08:19:07;16.67;;;9.23;;
16189;SDS011;41754;51.498;7.540;2024-01-16T08:21:36;16.07;;;9.47;;
16189;SDS011;41754;51.498;7.540;2024-01-16T08:24:03;16.70;;;8.90;;
16189;SDS011;41754;51.498;7.540;2024-01-16T08:26:32;13.93;;;8.33;;
16189;SDS011;41754;51.498;7.540;2024-01-16T08:29:01;15.60;;;8.33;;
16189;SDS011;41754;51.498;7.540;2024-01-16T08:31:29;10.93;;;7.77;;
16189;SDS011;41754;51.498;7.540;2024-01-16T08:33:57;15.30;;;8.43;;
16189;SDS011;41754;51.498;7.540;2024-01-16T08:36:25;12.60;;;7.77;;
16189;SDS011;41754;51.498;7.540;2024-01-16T08:38:53;11.67;;;6.77;;
16189;SDS011;41754;51.498;7.540;2024-01-16T08:41:21;12.37;;;7.20;;
16189;SDS011;41754;51.498;7.540;2024-01-16T08:43:50;10.33;;;6.63;;
16189;SDS011;41754;51.498;7.540;2024-01-16T08:46:20;14.07;;;6.77;;
16189;SDS011;41754;51.498;7.540;2024-01-16T08:48:49;12.73;;;6.30;;
16189;SDS011;41754;51.498;7.540;2024-01-16T08:51:17;10.67;;;5.73;;
16189;SDS011;41754;51.498;7.540;2024-01-16T08:53:45;11.63;;;5.37;;
16189;SDS011;41754;51.498;7.540;2024-01-16T08:56:13;11.23;;;5.33;;
16189;SDS011;41754;51.498;7.540;2024-01-16T08:58:41;11.73;;;4.93;;
16189;SDS011;41754;51.498;7.540;2024-01-16T09:01:08;13.57;;;5.37;;
16189;SDS011;41754;51.498;7.540;2024-01-16T09:03:38;11.60;;;4.73;;
16189;SDS011;41754;51.498;7.540;2024-01-16T09:06:06;13.10;;;4.83;;
16189;SDS011;41754;51.498;7.540;2024-01-16T09:08:35;10.73;;;4.60;;
16189;SDS011;41754;51.498;7.540;2024-01-16T09:11:03;8.30;;;4.00;;
16189;SDS011;41754;51.498;7.540;2024-01-16T09:13:31;9.67;;;4.40;;
16189;SDS011;41754;51.498;7.540;2024-01-16T09:16:00;10.17;;;4.33;;
16189;SDS011;41754;51.498;7.540;2024-01-16T09:18:28;10.60;;;4.33;;
16189;SDS011;41754;51.498;7.540;2024-01-16T09:20:57;12.70;;;4.13;;
16189;SDS011;41754;51.498;7.540;2024-01-16T09:23:25;10.57;;;4.40;;
16189;SDS011;41754;51.498;7.540;2024-01-16T09:25:53;11.10;;;4.60;;
16189;SDS011;41754;51.498;7.540;2024-01-16T09:28:21;9.07;;;3.57;;
16189;SDS011;41754;51.498;7.540;2024-01-16T09:30:49;11.83;;;4.10;;
16189;SDS011;41754;51.498;7.540;2024-01-16T09:33:17;11.27;;;4.13;;
16189;SDS011;41754;51.498;7.540;2024-01-16T09:35:45;8.53;;;3.93;;
16189;SDS011;41754;51.498;7.540;2024-01-16T09:38:15;12.93;;;4.37;;
16189;SDS011;41754;51.498;7.540;2024-01-16T09:40:44;14.03;;;4.60;;
16189;SDS011;41754;51.498;7.540;2024-01-16T09:43:12;11.03;;;3.33;;
16189;SDS011;41754;51.498;7.540;2024-01-16T09:45:41;8.87;;;3.50;;
16189;SDS011;41754;51.498;7.540;2024-01-16T09:48:08;6.27;;;3.40;;
16189;SDS011;41754;51.498;7.540;2024-01-16T09:50:38;5.70;;;2.90;;
16189;SDS011;41754;51.498;7.540;2024-01-16T09:53:06;7.43;;;2.97;;
16189;SDS011;41754;51.498;7.540;2024-01-16T09:55:35;8.90;;;3.47;;
16189;SDS011;41754;51.498;7.540;2024-01-16T09:58:03;6.60;;;3.63;;
16189;SDS011;41754;51.498;7.540;2024-01-16T10:00:33;8.60;;;3.30;;
16189;SDS011;41754;51.498;7.540;2024-01-16T10:03:03;11.00;;;3.60;;
16189;SDS011;41754;51.498;7.540;2024-01-16T10:05:32;12.53;;;3.30;;
16189;SDS011;41754;51.498;7.540;2024-01-16T10:08:00;14.83;;;6.83;;
16189;SDS011;41754;51.498;7.540;2024-01-16T10:10:29;14.13;;;4.87;;
16189;SDS011;41754;51.498;7.540;2024-01-16T10:13:13;7.57;;;3.20;;
16189;SDS011;41754;51.498;7.540;2024-01-16T10:15:42;8.33;;;3.10;;
16189;SDS011;41754;51.498;7.540;2024-01-16T10:18:21;7.43;;;3.60;;
16189;SDS011;41754;51.498;7.540;2024-01-16T10:20:49;7.73;;;3.03;;
16189;SDS011;41754;51.498;7.540;2024-01-16T10:23:22;6.33;;;2.57;;
16189;SDS011;41754;51.498;7.540;2024-01-16T10:26:04;6.23;;;2.60;;
16189;SDS011;41754;51.498;7.540;2024-01-16T10:28:34;4.33;;;2.70;;
16189;SDS011;41754;51.498;7.540;2024-01-16T10:31:03;10.47;;;3.00;;
16189;SDS011;41754;51.498;7.540;2024-01-16T10:33:32;7.00;;;3.10;;
16189;SDS011;41754;51.498;7.540;2024-01-16T10:36:08;6.03;;;3.27;;
16189;SDS011;41754;51.498;7.540;2024-01-16T10:38:38;7.10;;;2.83;;
16189;SDS011;41754;51.498;7.540;2024-01-16T10:41:09;7.87;;;2.80;;
16189;SDS011;41754;51.498;7.540;2024-01-16T10:43:39;6.60;;;2.80;;
16189;SDS011;41754;51.498;7.540;2024-01-16T10:46:08;8.43;;;3.27;;
16189;SDS011;41754;51.498;7.540;2024-01-16T10:48:38;11.30;;;3.20;;
16189;SDS011;41754;51.498;7.540;2024-01-16T10:51:09;7.03;;;3.33;;
16189;SDS011;41754;51.498;7.540;2024-01-16T10:53:40;6.87;;;2.83;;
16189;SDS011;41754;51.498;7.540;2024-01-16T10:56:10;7.27;;;3.30;;
16189;SDS011;41754;51.498;7.540;2024-01-16T10:58:40;11.63;;;3.00;;
16189;SDS011;41754;51.498;7.540;2024-01-16T11:01:10;8.20;;;3.23;;
16189;SDS011;41754;51.498;7.540;2024-01-16T11:03:40;8.57;;;3.20;;
16189;SDS011;41754;51.498;7.540;2024-01-16T11:06:14;7.27;;;3.00;;
16189;SDS011;41754;51.498;7.540;2024-01-16T11:08:45;6.33;;;2.43;;
16189;SDS011;41754;51.498;7.540;2024-01-16T11:11:14;6.40;;;2.57;;
16189;SDS011;41754;51.498;7.540;2024-01-16T11:13:45;7.70;;;3.00;;
16189;SDS011;41754;51.498;7.540;2024-01-16T11:16:13;5.10;;;2.90;;
16189;SDS011;41754;51.498;7.540;2024-01-16T11:18:41;11.90;;;3.33;;
16189;SDS011;41754;51.498;7.540;2024-01-16T11:21:10;6.17;;;2.60;;
16189;SDS011;41754;51.498;7.540;2024-01-16T11:23:44;5.57;;;2.60;;
16189;SDS011;41754;51.498;7.540;2024-01-16T11:26:24;6.77;;;2.87;;
16189;SDS011;41754;51.498;7.540;2024-01-16T11:28:54;8.07;;;2.70;;
16189;SDS011;41754;51.498;7.540;2024-01-16T11:31:30;6.70;;;2.83;;
16189;SDS011;41754;51.498;7.540;2024-01-16T11:34:00;7.87;;;2.97;;
16189;SDS011;41754;51.498;7.540;2024-01-16T11:36:42;6.47;;;2.87;;
16189;SDS011;41754;51.498;7.540;2024-01-16T11:39:17;7.80;;;3.00;;
16189;SDS011;41754;51.498;7.540;2024-01-16T11:41:50;6.93;;;2.87;;
16189;SDS011;41754;51.498;7.540;2024-01-16T11:47:17;6.47;;;3.20;;
16189;SDS011;41754;51.498;7.540;2024-01-16T11:49:46;8.30;;;3.23;;
16189;SDS011;41754;51.498;7.540;2024-01-16T11:52:15;8.57;;;3.10;;
16189;SDS011;41754;51.498;7.540;2024-01-16T11:58:02;6.83;;;2.50;;
16189;SDS011;41754;51.498;7.540;2024-01-16T12:00:49;7.00;;;2.90;;
16189;SDS011;41754;51.498;7.540;2024-01-16T12:03:18;6.57;;;2.53;;
16189;SDS011;41754;51.498;7.540;2024-01-16T12:06:00;6.50;;;3.00;;
16189;SDS011;41754;51.498;7.540;2024-01-16T12:08:30;7.50;;;2.93;;
16189;SDS011;41754;51.498;7.540;2024-01-16T12:10:58;12.27;;;4.10;;
16189;SDS011;41754;51.498;7.540;2024-01-16T12:13:27;10.60;;;3.50;;
16189;SDS011;41754;51.498;7.540;2024-01-16T12:16:02;7.40;;;2.97;;
16189;SDS011;41754;51.498;7.540;2024-01-16T12:18:32;8.83;;;3.10;;
16189;SDS011;41754;51.498;7.540;2024-01-16T12:21:10;12.17;;;3.47;;
16189;SDS011;41754;51.498;7.540;2024-01-16T12:23:39;5.80;;;2.50;;
16189;SDS011;41754;51.498;7.540;2024-01-16T12:26:21;5.73;;;2.93;;
16189;SDS011;41754;51.498;7.540;2024-01-16T12:28:50;9.03;;;2.97;;
16189;SDS011;41754;51.498;7.540;2024-01-16T12:31:24;8.47;;;3.90;;
16189;SDS011;41754;51.498;7.540;2024-01-16T12:33:52;10.33;;;3.33;;
16189;SDS011;41754;51.498;7.540;2024-01-16T12:36:29;9.47;;;3.90;;
16189;SDS011;41754;51.498;7.540;2024-01-16T12:38:57;13.13;;;4.13;;
16189;SDS011;41754;51.498;7.540;2024-01-16T12:41:25;8.37;;;3.50;;
16189;SDS011;41754;51.498;7.540;2024-01-16T12:44:07;7.10;;;3.13;;
16189;SDS011;41754;51.498;7.540;2024-01-16T12:46:44;9.97;;;3.20;;
16189;SDS011;41754;51.498;7.540;2024-01-16T12:49:21;8.10;;;3.27;;
16189;SDS011;41754;51.498;7.540;2024-01-16T12:51:49;7.50;;;3.20;;
16189;SDS011;41754;51.498;7.540;2024-01-16T12:54:18;6.87;;;2.90;;
16189;SDS011;41754;51.498;7.540;2024-01-16T12:56:57;10.53;;;3.30;;
16189;SDS011;41754;51.498;7.540;2024-01-16T12:59:27;7.87;;;3.07;;
16189;SDS011;41754;51.498;7.540;2024-01-16T13:01:58;9.50;;;2.70;;
16189;SDS011;41754;51.498;7.540;2024-01-16T13:04:27;7.13;;;3.00;;
16189;SDS011;41754;51.498;7.540;2024-01-16T13:07:00;4.90;;;2.67;;
16189;SDS011;41754;51.498;7.540;2024-01-16T13:09:29;7.90;;;3.33;;
16189;SDS011;41754;51.498;7.540;2024-01-16T13:11:58;6.97;;;2.77;;
16189;SDS011;41754;51.498;7.540;2024-01-16T13:14:27;6.07;;;2.80;;
16189;SDS011;41754;51.498;7.540;2024-01-16T13:16:55;6.87;;;3.13;;
16189;SDS011;41754;51.498;7.540;2024-01-16T13:19:24;8.00;;;3.20;;
16189;SDS011;41754;51.498;7.540;2024-01-16T13:21:52;8.47;;;3.30;;
16189;SDS011;41754;51.498;7.540;2024-01-16T13:24:21;9.77;;;2.83;;
16189;SDS011;41754;51.498;7.540;2024-01-16T13:26:50;10.60;;;3.43;;
16189;SDS011;41754;51.498;7.540;2024-01-16T13:29:19;11.90;;;3.50;;
16189;SDS011;41754;51.498;7.540;2024-01-16T13:31:47;7.78;;;2.90;;
16189;SDS011;41754;51.498;7.540;2024-01-16T13:34:15;12.50;;;3.42;;
16189;SDS011;41754;51.498;7.540;2024-01-16T13:36:47;7.22;;;2.83;;
16189;SDS011;41754;51.498;7.540;2024-01-16T13:39:36;6.95;;;3.38;;
16189;SDS011;41754;51.498;7.540;2024-01-16T13:42:05;10.63;;;3.42;;
16189;SDS011;41754;51.498;7.540;2024-01-16T13:44:33;7.40;;;3.30;;
16189;SDS011;41754;51.498;7.540;2024-01-16T13:47:01;8.27;;;3.72;;
16189;SDS011;41754;51.498;7.540;2024-01-16T13:49:37;8.00;;;3.13;;
16189;SDS011;41754;51.498;7.540;2024-01-16T13:52:08;7.50;;;3.03;;
16189;SDS011;41754;51.498;7.540;2024-01-16T13:54:37;10.13;;;3.43;;
16189;SDS011;41754;51.498;7.540;2024-01-16T13:57:06;9.97;;;3.70;;
16189;SDS011;41754;51.498;7.540;2024-01-16T13:59:37;6.63;;;3.20;;
16189;SDS011;41754;51.498;7.540;2024-01-16T14:02:05;8.43;;;3.90;;
16189;SDS011;41754;51.498;7.540;2024-01-16T14:04:34;8.20;;;3.33;;
16189;SDS011;41754;51.498;7.540;2024-01-16T14:07:03;5.63;;;3.20;;
16189;SDS011;41754;51.498;7.540;2024-01-16T14:09:41;5.47;;;2.87;;
16189;SDS011;41754;51.498;7.540;2024-01-16T14:12:11;11.13;;;3.30;;
16189;SDS011;41754;51.498;7.540;2024-01-16T14:14:40;10.57;;;3.43;;
16189;SDS011;41754;51.498;7.540;2024-01-16T14:17:09;7.17;;;3.30;;
16189;SDS011;41754;51.498;7.540;2024-01-16T14:19:37;8.23;;;3.23;;
16189;SDS011;41754;51.498;7.540;2024-01-16T14:22:05;8.77;;;4.30;;
16189;SDS011;41754;51.498;7.540;2024-01-16T14:24:33;6.43;;;2.90;;
16189;SDS011;41754;51.498;7.540;2024-01-16T14:27:03;8.47;;;3.57;;
16189;SDS011;41754;51.498;7.540;2024-01-16T14:29:31;8.03;;;3.60;;
16189;SDS011;41754;51.498;7.540;2024-01-16T14:32:01;7.50;;;3.17;;
16189;SDS011;41754;51.498;7.540;2024-01-16T14:34:29;8.87;;;3.20;;
16189;SDS011;41754;51.498;7.540;2024-01-16T14:36:57;7.93;;;3.50;;
16189;SDS011;41754;51.498;7.540;2024-01-16T14:39:24;8.87;;;3.60;;
16189;SDS011;41754;51.498;7.540;2024-01-16T14:41:56;5.97;;;3.43;;
16189;SDS011;41754;51.498;7.540;2024-01-16T14:44:26;11.27;;;4.30;;
16189;SDS011;41754;51.498;7.540;2024-01-16T14:46:53;9.20;;;3.50;;
16189;SDS011;41754;51.498;7.540;2024-01-16T14:49:21;7.93;;;3.83;;
16189;SDS011;41754;51.498;7.540;2024-01-16T14:51:49;6.97;;;3.70;;